createdAt,value
2022-09-12T00:00:16.025Z,8.42
2022-09-12T00:01:16.087Z,8.47
2022-09-12T00:02:16.065Z,8.41
2022-09-12T00:03:15.974Z,8.41
2022-09-12T00:04:15.946Z,8.42
2022-09-12T00:05:15.949Z,8.34
2022-09-12T00:06:19.270Z,8.34
2022-09-12T00:07:16.914Z,8.34
2022-09-12T00:08:15.877Z,8.32
2022-09-12T00:09:15.859Z,8.34
2022-09-12T00:10:15.818Z,8.34
2022-09-12T00:11:15.798Z,8.31
2022-09-12T00:12:15.788Z,8.26
2022-09-12T00:13:15.768Z,8.24
2022-09-12T00:14:15.748Z,8.23
2022-09-12T00:15:15.748Z,8.21
2022-09-12T00:16:15.745Z,8.20
2022-09-12T00:17:15.689Z,8.21
2022-09-12T00:18:15.682Z,8.19
2022-09-12T00:19:15.658Z,8.19
2022-09-12T00:20:15.631Z,8.14
2022-09-12T00:21:15.633Z,8.13
2022-09-12T00:22:15.598Z,8.17
2022-09-12T00:23:15.600Z,8.10
2022-09-12T00:24:15.551Z,8.01
2022-09-12T00:25:15.551Z,8.02
2022-09-12T00:26:15.530Z,8.05
2022-09-12T00:27:15.523Z,7.94
2022-09-12T00:28:15.506Z,8.01
2022-09-12T00:29:15.491Z,7.99
2022-09-12T00:30:15.464Z,7.95
2022-09-12T00:31:15.504Z,7.92
2022-09-12T00:32:15.431Z,7.83
2022-09-12T00:33:15.435Z,7.84
2022-09-12T00:34:15.414Z,7.87
2022-09-12T00:35:15.394Z,7.83
2022-09-12T00:36:15.403Z,7.83
2022-09-12T00:37:15.376Z,7.81
2022-09-12T00:38:15.373Z,7.84
2022-09-12T00:39:15.367Z,7.84
2022-09-12T00:40:15.390Z,7.78
2022-09-12T00:41:15.334Z,7.81
2022-09-12T00:42:15.325Z,7.78
2022-09-12T00:43:15.316Z,7.78
2022-09-12T00:44:15.304Z,7.80
2022-09-12T00:45:15.296Z,7.78
2022-09-12T00:46:15.268Z,7.77
2022-09-12T00:47:15.267Z,7.84
2022-09-12T00:48:15.238Z,7.88
2022-09-12T00:49:15.247Z,7.84
2022-09-12T00:50:15.208Z,7.88
2022-09-12T00:51:15.207Z,7.92
2022-09-12T00:52:15.189Z,7.94
2022-09-12T00:53:15.198Z,7.92
2022-09-12T00:54:15.189Z,7.92
2022-09-12T00:55:15.179Z,7.96
2022-09-12T00:56:15.168Z,7.95
2022-09-12T00:57:15.182Z,8.02
2022-09-12T00:58:15.140Z,7.99
2022-09-12T00:59:15.157Z,7.98
2022-09-12T01:00:15.136Z,7.98
2022-09-12T01:01:15.181Z,7.96
2022-09-12T01:02:15.133Z,7.91
2022-09-12T01:03:15.090Z,7.92
2022-09-12T01:04:15.082Z,7.84
2022-09-12T01:05:15.059Z,7.86
2022-09-12T01:06:15.035Z,7.84
2022-09-12T01:07:15.032Z,7.81
2022-09-12T01:08:15.020Z,7.81
2022-09-12T01:09:14.999Z,7.83
2022-09-12T01:10:15.001Z,7.83
2022-09-12T01:11:14.997Z,7.87
2022-09-12T01:12:14.965Z,7.91
2022-09-12T01:13:14.953Z,7.91
2022-09-12T01:14:14.931Z,7.96
2022-09-12T01:15:14.914Z,7.88
2022-09-12T01:16:14.932Z,7.88
2022-09-12T01:17:14.887Z,7.91
2022-09-12T01:18:14.865Z,7.87
2022-09-12T01:19:14.864Z,7.81
2022-09-12T01:20:14.847Z,7.81
2022-09-12T01:21:14.826Z,7.81
2022-09-12T01:22:14.813Z,7.83
2022-09-12T01:23:14.798Z,7.74
2022-09-12T01:24:14.777Z,7.74
2022-09-12T01:25:14.776Z,7.66
2022-09-12T01:26:14.736Z,7.68
2022-09-12T01:27:14.728Z,7.62
2022-09-12T01:28:14.697Z,7.62
2022-09-12T01:29:14.697Z,7.64
2022-09-12T01:30:14.669Z,7.60
2022-09-12T01:31:14.670Z,7.57
2022-09-12T01:32:14.680Z,7.49
2022-09-12T01:33:14.629Z,7.43
2022-09-12T01:34:14.610Z,7.46
2022-09-12T01:35:14.599Z,7.39
2022-09-12T01:36:14.590Z,7.44
2022-09-12T01:37:14.571Z,7.39
2022-09-12T01:38:14.550Z,7.39
2022-09-12T01:39:14.551Z,7.33
2022-09-12T01:40:14.590Z,7.28
2022-09-12T01:41:14.512Z,7.26
2022-09-12T01:42:14.496Z,7.24
2022-09-12T01:43:14.501Z,7.25
2022-09-12T01:44:14.472Z,7.26
2022-09-12T01:45:14.482Z,7.31
2022-09-12T01:46:14.478Z,7.22
2022-09-12T01:47:14.456Z,7.18
2022-09-12T01:48:14.453Z,7.16
2022-09-12T01:49:14.444Z,7.11
2022-09-12T01:50:14.433Z,7.08
2022-09-12T01:51:14.445Z,7.15
2022-09-12T01:52:14.414Z,7.15
2022-09-12T01:53:14.424Z,7.08
2022-09-12T01:54:14.412Z,7.03
2022-09-12T01:55:14.395Z,6.99
2022-09-12T01:56:14.395Z,7.00
2022-09-12T01:57:14.395Z,7.01
2022-09-12T01:58:14.374Z,7.04
2022-09-12T01:59:14.356Z,7.08
2022-09-12T02:00:14.336Z,7.07
2022-09-12T02:01:14.358Z,7.11
2022-09-12T02:02:14.386Z,7.10
2022-09-12T02:03:14.307Z,7.10
2022-09-12T02:04:14.297Z,7.04
2022-09-12T02:05:14.287Z,7.08
2022-09-12T02:06:14.277Z,7.06
2022-09-12T02:07:14.288Z,7.04
2022-09-12T02:08:14.272Z,7.07
2022-09-12T02:09:14.257Z,7.00
2022-09-12T02:10:14.238Z,6.99
2022-09-12T02:11:14.234Z,6.99
2022-09-12T02:12:14.229Z,6.89
2022-09-12T02:13:14.219Z,6.96
2022-09-12T02:14:14.202Z,6.92
2022-09-12T02:15:14.190Z,6.92
2022-09-12T02:16:14.218Z,6.89
2022-09-12T02:17:14.191Z,6.86
2022-09-12T02:18:14.160Z,6.92
2022-09-12T02:19:14.150Z,6.91
2022-09-12T02:20:25.884Z,6.92
2022-09-12T02:21:15.121Z,6.89
2022-09-12T02:22:14.105Z,6.93
2022-09-12T02:23:14.101Z,6.93
2022-09-12T02:24:14.071Z,6.92
2022-09-12T02:25:14.072Z,6.97
2022-09-12T02:26:14.060Z,6.96
2022-09-12T02:27:14.054Z,6.99
2022-09-12T02:28:14.045Z,6.99
2022-09-12T02:29:14.044Z,7.06
2022-09-12T02:30:14.044Z,7.01
2022-09-12T02:31:14.032Z,7.08
2022-09-12T02:32:14.035Z,7.07
2022-09-12T02:33:14.055Z,7.06
2022-09-12T02:34:14.032Z,7.10
2022-09-12T02:35:14.034Z,7.06
2022-09-12T02:36:14.032Z,7.08
2022-09-12T02:37:14.016Z,7.04
2022-09-12T02:38:14.016Z,7.03
2022-09-12T02:39:14.018Z,7.07
2022-09-12T02:40:14.034Z,7.06
2022-09-12T02:41:13.994Z,7.06
2022-09-12T02:42:13.995Z,7.06
2022-09-12T02:43:13.977Z,7.01
2022-09-12T02:44:13.986Z,6.97
2022-09-12T02:45:13.974Z,6.99
2022-09-12T02:46:13.977Z,6.97
2022-09-12T02:47:13.958Z,6.99
2022-09-12T02:48:13.958Z,6.93
2022-09-12T02:49:13.957Z,6.96
2022-09-12T02:50:13.946Z,6.97
2022-09-12T02:51:13.938Z,6.91
2022-09-12T02:52:13.950Z,6.92
2022-09-12T02:53:13.959Z,6.89
2022-09-12T02:54:13.950Z,6.85
2022-09-12T02:55:13.949Z,6.78
2022-09-12T02:56:13.950Z,6.79
2022-09-12T02:57:13.931Z,6.78
2022-09-12T02:58:13.930Z,6.81
2022-09-12T02:59:13.928Z,6.74
2022-09-12T03:00:13.959Z,6.68
2022-09-12T03:01:13.936Z,6.74
2022-09-12T03:02:13.946Z,6.70
2022-09-12T03:03:13.911Z,6.70
2022-09-12T03:04:13.901Z,6.70
2022-09-12T03:05:13.889Z,6.71
2022-09-12T03:06:13.892Z,6.71
2022-09-12T03:07:13.885Z,6.63
2022-09-12T03:08:13.883Z,6.61
2022-09-12T03:09:13.890Z,6.57
2022-09-12T03:10:13.903Z,6.63
2022-09-12T03:11:13.881Z,6.57
2022-09-12T03:12:13.885Z,6.53
2022-09-12T03:13:13.892Z,6.50
2022-09-12T03:14:13.890Z,6.50
2022-09-12T03:15:13.885Z,6.53
2022-09-12T03:16:13.922Z,6.50
2022-09-12T03:17:13.885Z,6.56
2022-09-12T03:18:13.895Z,6.50
2022-09-12T03:19:13.884Z,6.53
2022-09-12T03:20:13.917Z,6.45
2022-09-12T03:21:13.905Z,6.61
2022-09-12T03:22:13.903Z,6.55
2022-09-12T03:23:13.916Z,6.53
2022-09-12T03:24:13.909Z,6.53
2022-09-12T03:25:13.916Z,6.63
2022-09-12T03:26:13.915Z,6.52
2022-09-12T03:27:13.932Z,6.53
2022-09-12T03:28:13.920Z,6.55
2022-09-12T03:29:13.917Z,6.49
2022-09-12T03:30:13.947Z,6.52
2022-09-12T03:31:13.919Z,6.52
2022-09-12T03:32:13.927Z,6.50
2022-09-12T03:33:13.918Z,6.53
2022-09-12T03:34:13.920Z,6.57
2022-09-12T03:35:13.927Z,6.63
2022-09-12T03:36:13.929Z,6.64
2022-09-12T03:37:13.930Z,6.65
2022-09-12T03:38:13.930Z,6.67
2022-09-12T03:39:13.930Z,6.71
2022-09-12T03:40:13.971Z,6.70
2022-09-12T03:41:13.957Z,6.70
2022-09-12T03:42:13.950Z,6.73
2022-09-12T03:43:13.942Z,6.75
2022-09-12T03:44:13.960Z,6.78
2022-09-12T03:45:13.950Z,6.82
2022-09-12T03:46:13.982Z,6.85
2022-09-12T03:47:13.976Z,6.88
2022-09-12T03:48:13.989Z,6.92
2022-09-12T03:49:13.974Z,6.96
2022-09-12T03:50:13.995Z,7.00
2022-09-12T03:51:14.006Z,7.01
2022-09-12T03:52:13.993Z,7.04
2022-09-12T03:53:17.040Z,7.07
2022-09-12T03:54:13.993Z,7.10
2022-09-12T03:55:13.993Z,7.13
2022-09-12T03:56:14.025Z,7.16
2022-09-12T03:57:14.001Z,7.18
2022-09-12T03:58:14.004Z,7.19
2022-09-12T03:59:14.007Z,7.25
2022-09-12T04:00:19.063Z,7.21
2022-09-12T04:01:15.106Z,7.21
2022-09-12T04:02:14.060Z,7.24
2022-09-12T04:03:14.015Z,7.26
2022-09-12T04:04:14.026Z,7.31
2022-09-12T04:05:14.036Z,7.29
2022-09-12T04:06:14.048Z,7.31
2022-09-12T04:07:14.059Z,7.28
2022-09-12T04:08:14.062Z,7.26
2022-09-12T04:09:14.038Z,7.29
2022-09-12T04:10:16.235Z,7.31
2022-09-12T04:11:14.058Z,7.36
2022-09-12T04:12:14.067Z,7.34
2022-09-12T04:13:14.038Z,7.31
2022-09-12T04:14:14.049Z,7.37
2022-09-12T04:15:14.060Z,7.36
2022-09-12T04:16:14.100Z,7.42
2022-09-12T04:17:14.069Z,7.37
2022-09-12T04:18:14.059Z,7.37
2022-09-12T04:19:14.062Z,7.40
2022-09-12T04:20:14.067Z,7.42
2022-09-12T04:21:14.062Z,7.49
2022-09-12T04:22:14.072Z,7.44
2022-09-12T04:23:14.068Z,7.44
2022-09-12T04:24:14.063Z,7.44
2022-09-12T04:25:14.061Z,7.47
2022-09-12T04:26:14.071Z,7.49
2022-09-12T04:27:14.061Z,7.52
2022-09-12T04:28:14.071Z,7.49
2022-09-12T04:29:14.075Z,7.49
2022-09-12T04:30:14.082Z,7.50
2022-09-12T04:31:14.064Z,7.58
2022-09-12T04:32:14.073Z,7.57
2022-09-12T04:33:14.082Z,7.57
2022-09-12T04:34:14.074Z,7.55
2022-09-12T04:35:14.082Z,7.55
2022-09-12T04:36:14.064Z,7.58
2022-09-12T04:37:14.054Z,7.61
2022-09-12T04:38:14.082Z,7.60
2022-09-12T04:39:14.038Z,7.58
2022-09-12T04:40:14.067Z,7.62
2022-09-12T04:41:14.025Z,7.61
2022-09-12T04:42:14.025Z,7.58
2022-09-12T04:43:14.758Z,7.62
2022-09-12T04:44:14.024Z,7.66
2022-09-12T04:45:14.008Z,7.71
2022-09-12T04:46:14.135Z,7.69
2022-09-12T04:47:13.988Z,7.66
2022-09-12T04:48:13.977Z,7.68
2022-09-12T04:49:13.977Z,7.66
2022-09-12T04:50:14.018Z,7.62
2022-09-12T04:51:13.988Z,7.66
2022-09-12T04:52:13.967Z,7.66
2022-09-12T04:53:13.958Z,7.68
2022-09-12T04:54:13.969Z,7.62
2022-09-12T04:55:13.963Z,7.66
2022-09-12T04:56:13.969Z,7.64
2022-09-12T04:57:13.960Z,7.66
2022-09-12T04:58:13.949Z,7.62
2022-09-12T04:59:13.959Z,7.60
2022-09-12T05:00:13.940Z,7.57
2022-09-12T05:01:13.964Z,7.55
2022-09-12T05:02:14.002Z,7.57
2022-09-12T05:03:13.900Z,7.60
2022-09-12T05:04:13.920Z,7.55
2022-09-12T05:05:13.940Z,7.49
2022-09-12T05:06:13.882Z,7.44
2022-09-12T05:07:13.888Z,7.50
2022-09-12T05:08:13.890Z,7.47
2022-09-12T05:09:13.881Z,7.47
2022-09-12T05:10:13.862Z,7.50
2022-09-12T05:11:13.864Z,7.50
2022-09-12T05:12:13.853Z,7.52
2022-09-12T05:13:13.853Z,7.50
2022-09-12T05:14:13.872Z,7.52
2022-09-12T05:15:13.845Z,7.52
2022-09-12T05:16:13.899Z,7.54
2022-09-12T05:17:13.844Z,7.55
2022-09-12T05:18:13.854Z,7.60
2022-09-12T05:19:13.835Z,7.64
2022-09-12T05:20:13.855Z,7.68
2022-09-12T05:21:13.835Z,7.64
2022-09-12T05:22:13.843Z,7.68
2022-09-12T05:23:13.828Z,7.68
2022-09-12T05:24:13.836Z,7.69
2022-09-12T05:25:13.854Z,7.73
2022-09-12T05:26:13.836Z,7.73
2022-09-12T05:27:13.826Z,7.74
2022-09-12T05:28:13.837Z,7.74
2022-09-12T05:29:13.817Z,7.77
2022-09-12T05:30:13.835Z,7.80
2022-09-12T05:31:13.827Z,7.81
2022-09-12T05:32:13.840Z,7.84
2022-09-12T05:33:13.825Z,7.88
2022-09-12T05:34:13.838Z,7.88
2022-09-12T05:35:13.838Z,7.98
2022-09-12T05:36:13.829Z,8.05
2022-09-12T05:37:13.829Z,8.02
2022-09-12T05:38:13.830Z,8.01
2022-09-12T05:39:13.819Z,8.06
2022-09-12T05:40:13.869Z,8.09
2022-09-12T05:41:17.661Z,8.10
2022-09-12T05:42:14.818Z,8.16
2022-09-12T05:43:13.801Z,8.17
2022-09-12T05:44:13.802Z,8.23
2022-09-12T05:45:13.791Z,8.26
2022-09-12T05:46:13.826Z,8.29
2022-09-12T05:47:13.764Z,8.34
2022-09-12T05:48:13.752Z,8.34
2022-09-12T05:49:13.751Z,8.35
2022-09-12T05:50:13.732Z,8.32
2022-09-12T05:51:13.723Z,8.32
2022-09-12T05:52:13.720Z,8.37
2022-09-12T05:53:13.712Z,8.37
2022-09-12T05:54:13.696Z,8.38
2022-09-12T05:55:13.692Z,8.39
2022-09-12T05:56:13.672Z,8.47
2022-09-12T05:57:13.646Z,8.49
2022-09-12T05:58:13.654Z,8.50
2022-09-12T05:59:13.626Z,8.53
2022-09-12T06:00:13.634Z,8.53
2022-09-12T06:01:13.678Z,8.52
2022-09-12T06:02:13.642Z,8.46
2022-09-12T06:03:13.575Z,8.49
2022-09-12T06:04:13.588Z,8.42
2022-09-12T06:05:13.566Z,8.49
2022-09-12T06:06:13.564Z,8.50
2022-09-12T06:07:13.537Z,8.56
2022-09-12T06:08:13.527Z,8.62
2022-09-12T06:09:13.518Z,8.65
2022-09-12T06:10:13.513Z,8.74
2022-09-12T06:11:13.498Z,8.75
2022-09-12T06:12:13.478Z,8.77
2022-09-12T06:13:13.467Z,8.80
2022-09-12T06:14:13.470Z,8.86
2022-09-12T06:15:13.429Z,8.85
2022-09-12T06:16:13.519Z,8.93
2022-09-12T06:17:13.411Z,9.01
2022-09-12T06:18:13.401Z,8.98
2022-09-12T06:19:13.389Z,8.99
2022-09-12T06:20:13.380Z,9.06
2022-09-12T06:21:13.372Z,9.11
2022-09-12T06:22:13.337Z,9.18
2022-09-12T06:23:13.333Z,9.15
2022-09-12T06:24:13.313Z,9.23
2022-09-12T06:25:13.289Z,9.29
2022-09-12T06:26:13.269Z,9.23
2022-09-12T06:27:13.262Z,9.32
2022-09-12T06:28:13.242Z,9.36
2022-09-12T06:29:13.202Z,9.34
2022-09-12T06:30:13.199Z,9.40
2022-09-12T06:31:13.229Z,9.36
2022-09-12T06:32:13.162Z,9.42
2022-09-12T06:33:13.134Z,9.37
2022-09-12T06:34:13.114Z,9.45
2022-09-12T06:35:13.092Z,9.48
2022-09-12T06:36:13.077Z,9.52
2022-09-12T06:37:13.063Z,9.59
2022-09-12T06:38:13.038Z,9.66
2022-09-12T06:39:13.024Z,9.69
2022-09-12T06:40:13.057Z,9.70
2022-09-12T06:41:12.967Z,9.75
2022-09-12T06:42:12.963Z,9.83
2022-09-12T06:43:12.928Z,9.87
2022-09-12T06:44:12.902Z,9.85
2022-09-12T06:45:12.875Z,9.91
2022-09-12T06:46:12.909Z,9.98
2022-09-12T06:47:12.837Z,9.93
2022-09-12T06:48:12.795Z,9.98
2022-09-12T06:49:12.783Z,9.96
2022-09-12T06:50:12.736Z,9.94
2022-09-12T06:51:12.698Z,9.94
2022-09-12T06:52:12.689Z,10.02
2022-09-12T06:53:12.649Z,10.05
2022-09-12T06:54:12.609Z,10.09
2022-09-12T06:55:16.193Z,10.16
2022-09-12T06:56:13.550Z,10.21
2022-09-12T06:57:12.531Z,10.21
2022-09-12T06:58:12.477Z,10.30
2022-09-12T06:59:12.433Z,10.38
2022-09-12T07:00:12.388Z,10.42
2022-09-12T07:01:12.418Z,10.46
2022-09-12T07:02:12.354Z,10.58
2022-09-12T07:03:12.292Z,10.62
2022-09-12T07:04:12.254Z,10.52
2022-09-12T07:05:12.203Z,10.61
2022-09-12T07:06:12.185Z,10.57
2022-09-12T07:07:12.134Z,10.64
2022-09-12T07:08:12.093Z,10.65
2022-09-12T07:09:12.036Z,10.72
2022-09-12T07:10:12.004Z,10.83
2022-09-12T07:11:11.964Z,10.86
2022-09-12T07:12:11.908Z,10.91
2022-09-12T07:13:11.888Z,11.08
2022-09-12T07:14:11.835Z,11.11
2022-09-12T07:15:11.788Z,11.15
2022-09-12T07:16:13.860Z,11.16
2022-09-12T07:17:12.728Z,11.23
2022-09-12T07:18:11.638Z,11.30
2022-09-12T07:19:11.577Z,11.46
2022-09-12T07:20:11.529Z,11.55
2022-09-12T07:21:11.483Z,11.66
2022-09-12T07:22:11.398Z,11.76
2022-09-12T07:23:11.358Z,11.96
2022-09-12T07:24:11.349Z,12.05
2022-09-12T07:25:11.228Z,12.13
2022-09-12T07:26:11.156Z,12.28
2022-09-12T07:27:11.110Z,12.36
2022-09-12T07:28:11.030Z,12.44
2022-09-12T07:29:34.934Z,12.48
2022-09-12T07:30:11.900Z,12.50
2022-09-12T07:31:10.893Z,12.58
2022-09-12T07:32:10.750Z,12.65
2022-09-12T07:33:10.682Z,12.69
2022-09-12T07:34:10.613Z,12.72
2022-09-12T07:35:10.541Z,12.84
2022-09-12T07:36:10.458Z,12.96
2022-09-12T07:37:10.382Z,13.05
2022-09-12T07:38:10.283Z,13.14
2022-09-12T07:39:10.214Z,13.24
2022-09-12T07:40:10.182Z,13.40
2022-09-12T07:41:10.028Z,13.54
2022-09-12T07:42:09.914Z,13.72
2022-09-12T07:43:09.816Z,13.86
2022-09-12T07:44:09.713Z,13.97
2022-09-12T07:45:09.596Z,14.05
2022-09-12T07:46:09.565Z,14.16
2022-09-12T07:47:09.376Z,14.27
2022-09-12T07:48:09.247Z,14.41
2022-09-12T07:49:09.151Z,14.52
2022-09-12T07:50:08.998Z,14.49
2022-09-12T07:51:08.887Z,14.52
2022-09-12T07:52:08.746Z,14.51
2022-09-12T07:53:08.628Z,14.52
2022-09-12T07:54:08.495Z,14.51
2022-09-12T07:55:08.367Z,14.51
2022-09-12T07:56:08.211Z,14.46
2022-09-12T07:57:08.083Z,14.51
2022-09-12T07:58:07.941Z,14.49
2022-09-12T07:59:07.819Z,14.45
2022-09-12T08:00:07.680Z,14.40
2022-09-12T08:01:07.566Z,14.41
2022-09-12T08:02:07.416Z,14.46
2022-09-12T08:03:07.250Z,14.51
2022-09-12T08:04:07.101Z,14.55
2022-09-12T08:05:06.965Z,14.56
2022-09-12T08:06:06.806Z,14.61
2022-09-12T08:07:06.666Z,14.66
2022-09-12T08:08:06.506Z,14.78
2022-09-12T08:09:06.376Z,14.79
2022-09-12T08:10:06.237Z,14.93
2022-09-12T08:11:06.110Z,14.92
2022-09-12T08:12:05.950Z,14.90
2022-09-12T08:13:05.826Z,14.93
2022-09-12T08:14:05.757Z,14.95
2022-09-12T08:15:05.556Z,15.05
2022-09-12T08:16:05.509Z,15.04
2022-09-12T08:17:05.282Z,15.12
2022-09-12T08:18:05.163Z,15.11
2022-09-12T08:19:05.069Z,15.20
2022-09-12T08:20:04.901Z,15.17
2022-09-12T08:21:04.799Z,15.25
2022-09-12T08:22:04.652Z,15.32
2022-09-12T08:23:04.542Z,15.36
2022-09-12T08:24:04.412Z,15.36
2022-09-12T08:25:04.303Z,15.44
2022-09-12T08:26:05.961Z,15.41
2022-09-12T08:27:04.061Z,15.41
2022-09-12T08:28:03.955Z,15.47
2022-09-12T08:29:03.835Z,15.56
2022-09-12T08:30:03.715Z,15.58
2022-09-12T08:31:03.691Z,15.51
2022-09-12T08:32:03.498Z,15.58
2022-09-12T08:33:03.405Z,15.60
2022-09-12T08:34:03.278Z,15.65
2022-09-12T08:35:03.177Z,15.65
2022-09-12T08:36:03.086Z,15.66
2022-09-12T08:37:02.969Z,15.70
2022-09-12T08:38:02.876Z,15.76
2022-09-12T08:39:02.789Z,15.78
2022-09-12T08:40:02.709Z,15.69
2022-09-12T08:41:02.597Z,15.65
2022-09-12T08:42:02.527Z,15.69
2022-09-12T08:43:02.380Z,15.68
2022-09-12T08:44:02.289Z,15.78
2022-09-12T08:45:02.197Z,15.78
2022-09-12T08:46:02.144Z,15.88
2022-09-12T08:47:01.999Z,15.85
2022-09-12T08:48:01.900Z,15.88
2022-09-12T08:49:01.813Z,15.91
2022-09-12T08:50:01.711Z,15.88
2022-09-12T08:51:01.620Z,15.96
2022-09-12T08:52:01.503Z,15.98
2022-09-12T08:53:01.425Z,15.93
2022-09-12T08:54:01.324Z,15.93
2022-09-12T08:55:01.218Z,15.98
2022-09-12T08:56:01.125Z,15.98
2022-09-12T08:57:01.036Z,16.03
2022-09-12T08:58:00.933Z,16.13
2022-09-12T08:59:00.845Z,16.17
2022-09-12T09:00:00.745Z,16.26
2022-09-12T09:01:00.647Z,16.28
2022-09-12T09:02:00.581Z,16.33
2022-09-12T09:03:00.468Z,16.36
2022-09-12T09:04:00.348Z,16.33
2022-09-12T09:05:00.268Z,16.36
2022-09-12T09:06:00.169Z,16.40
2022-09-12T09:07:00.093Z,16.29
2022-09-12T09:07:59.970Z,16.26
2022-09-12T09:08:59.892Z,16.32
2022-09-12T09:09:59.799Z,16.37
2022-09-12T09:10:59.703Z,16.40
2022-09-12T09:11:59.632Z,16.43
2022-09-12T09:12:59.522Z,16.32
2022-09-12T09:14:01.912Z,16.29
2022-09-12T09:15:00.343Z,16.26
2022-09-12T09:15:59.271Z,16.26
2022-09-12T09:16:59.152Z,16.24
2022-09-12T09:17:59.062Z,16.25
2022-09-12T09:18:58.975Z,16.39
2022-09-12T09:19:58.863Z,16.36
2022-09-12T09:20:58.775Z,16.47
2022-09-12T09:21:58.685Z,16.58
2022-09-12T09:22:58.605Z,16.74
2022-09-12T09:23:58.625Z,16.79
2022-09-12T09:24:58.397Z,16.90
2022-09-12T09:25:58.298Z,16.94
2022-09-12T09:26:58.298Z,16.94
2022-09-12T09:27:58.109Z,16.90
2022-09-12T09:28:58.008Z,16.74
2022-09-12T09:29:57.911Z,16.61
2022-09-12T09:30:57.902Z,16.58
2022-09-12T09:31:57.729Z,16.59
2022-09-12T09:32:57.639Z,16.52
2022-09-12T09:33:57.548Z,16.51
2022-09-12T09:34:57.431Z,16.44
2022-09-12T09:35:57.341Z,16.42
2022-09-12T09:36:57.260Z,16.36
2022-09-12T09:37:58.685Z,16.29
2022-09-12T09:38:57.081Z,16.22
2022-09-12T09:39:56.994Z,16.17
2022-09-12T09:40:56.893Z,16.09
2022-09-12T09:41:56.799Z,16.00
2022-09-12T09:42:56.704Z,15.93
2022-09-12T09:43:56.706Z,15.88
2022-09-12T09:44:56.531Z,15.87
2022-09-12T09:45:56.498Z,15.85
2022-09-12T09:46:56.345Z,15.84
2022-09-12T09:47:56.255Z,15.80
2022-09-12T09:48:56.188Z,15.76
2022-09-12T09:49:56.106Z,15.70
2022-09-12T09:50:55.996Z,15.68
2022-09-12T09:51:58.790Z,15.62
2022-09-12T09:52:55.828Z,15.54
2022-09-12T09:53:55.737Z,15.51
2022-09-12T09:54:55.677Z,15.51
2022-09-12T09:55:55.587Z,15.45
2022-09-12T09:56:55.502Z,15.47
2022-09-12T09:57:55.417Z,15.41
2022-09-12T09:58:55.331Z,15.38
2022-09-12T09:59:55.258Z,15.36
2022-09-12T10:00:56.815Z,15.41
2022-09-12T10:01:55.107Z,15.45
2022-09-12T10:02:55.068Z,15.38
2022-09-12T10:03:54.912Z,15.40
2022-09-12T10:04:54.842Z,15.36
2022-09-12T10:05:54.770Z,15.38
2022-09-12T10:06:54.672Z,15.41
2022-09-12T10:07:54.607Z,15.45
2022-09-12T10:08:54.510Z,15.41
2022-09-12T10:09:54.422Z,15.40
2022-09-12T10:10:54.364Z,15.47
2022-09-12T10:11:54.274Z,15.52
2022-09-12T10:12:54.204Z,15.52
2022-09-12T10:13:54.122Z,15.52
2022-09-12T10:14:54.043Z,15.60
2022-09-12T10:15:53.987Z,15.59
2022-09-12T10:16:53.876Z,15.60
2022-09-12T10:17:53.796Z,15.66
2022-09-12T10:18:53.706Z,15.69
2022-09-12T10:20:10.683Z,15.70
2022-09-12T10:20:54.568Z,15.77
2022-09-12T10:21:53.477Z,15.80
2022-09-12T10:22:53.388Z,15.85
2022-09-12T10:23:53.348Z,16.03
2022-09-12T10:24:53.258Z,16.13
2022-09-12T10:25:53.188Z,16.10
2022-09-12T10:26:56.591Z,16.26
2022-09-12T10:27:53.030Z,16.32
2022-09-12T10:28:52.960Z,16.29
2022-09-12T10:29:52.870Z,16.33
2022-09-12T10:30:52.806Z,16.34
2022-09-12T10:31:52.740Z,16.29
2022-09-12T10:32:52.583Z,16.32
2022-09-12T10:33:52.472Z,16.34
2022-09-12T10:34:52.430Z,16.40
2022-09-12T10:35:52.313Z,16.46
2022-09-12T10:36:52.240Z,16.47
2022-09-12T10:37:52.385Z,16.59
2022-09-12T10:38:52.063Z,16.65
2022-09-12T10:39:51.992Z,16.72
2022-09-12T10:40:51.886Z,16.74
2022-09-12T10:41:51.816Z,16.80
2022-09-12T10:42:51.725Z,16.88
2022-09-12T10:43:51.639Z,16.97
2022-09-12T10:44:51.546Z,17.07
2022-09-12T10:45:51.479Z,17.16
2022-09-12T10:46:51.401Z,17.10
2022-09-12T10:47:51.286Z,17.13
2022-09-12T10:48:51.208Z,17.14
2022-09-12T10:49:51.146Z,17.12
2022-09-12T10:50:51.033Z,17.17
2022-09-12T10:51:50.948Z,17.20
2022-09-12T10:52:50.867Z,17.24
2022-09-12T10:53:50.770Z,17.25
2022-09-12T10:54:50.690Z,17.22
2022-09-12T10:55:50.593Z,17.34
2022-09-12T10:56:50.531Z,17.38
2022-09-12T10:57:50.431Z,17.41
2022-09-12T10:58:50.341Z,17.50
2022-09-12T10:59:50.242Z,17.54
2022-09-12T11:00:50.173Z,17.69
2022-09-12T11:01:50.172Z,17.69
2022-09-12T11:02:50.063Z,17.75
2022-09-12T11:03:49.903Z,17.75
2022-09-12T11:04:49.814Z,17.78
2022-09-12T11:05:49.714Z,17.75
2022-09-12T11:06:49.643Z,17.73
2022-09-12T11:07:49.564Z,17.73
2022-09-12T11:08:49.465Z,17.73
2022-09-12T11:09:49.355Z,17.68
2022-09-12T11:10:49.289Z,17.66
2022-09-12T11:11:49.190Z,17.66
2022-09-12T11:12:49.105Z,17.65
2022-09-12T11:13:49.025Z,17.69
2022-09-12T11:14:48.919Z,17.52
2022-09-12T11:15:48.866Z,17.47
2022-09-12T11:16:48.732Z,17.46
2022-09-12T11:17:48.647Z,17.46
2022-09-12T11:18:48.567Z,17.46
2022-09-12T11:19:48.470Z,17.46
2022-09-12T11:20:48.370Z,17.43
2022-09-12T11:21:48.307Z,17.41
2022-09-12T11:22:48.211Z,17.47
2022-09-12T11:23:48.156Z,17.50
2022-09-12T11:24:48.020Z,17.47
2022-09-12T11:25:47.942Z,17.45
2022-09-12T11:26:47.851Z,17.38
2022-09-12T11:27:47.762Z,17.43
2022-09-12T11:28:47.663Z,17.43
2022-09-12T11:29:47.587Z,17.32
2022-09-12T11:30:47.537Z,17.30
2022-09-12T11:31:47.402Z,17.25
2022-09-12T11:32:47.298Z,17.19
2022-09-12T11:33:47.224Z,17.12
2022-09-12T11:34:47.136Z,17.14
2022-09-12T11:35:47.819Z,17.13
2022-09-12T11:36:46.946Z,17.14
2022-09-12T11:37:46.837Z,17.22
2022-09-12T11:38:46.809Z,17.20
2022-09-12T11:39:46.846Z,17.28
2022-09-12T11:40:46.550Z,17.31
2022-09-12T11:41:46.492Z,17.37
2022-09-12T11:42:46.359Z,17.41
2022-09-12T11:43:46.435Z,17.49
2022-09-12T11:44:46.224Z,17.52
2022-09-12T11:45:46.075Z,17.53
2022-09-12T11:46:49.913Z,17.56
2022-09-12T11:47:46.850Z,17.62
2022-09-12T11:48:45.811Z,17.62
2022-09-12T11:49:45.720Z,17.66
2022-09-12T11:50:45.532Z,17.63
2022-09-12T11:51:45.442Z,17.63
2022-09-12T11:52:45.331Z,17.57
2022-09-12T11:53:45.291Z,17.56
2022-09-12T11:54:45.138Z,17.57
2022-09-12T11:55:45.045Z,17.59
2022-09-12T11:56:44.914Z,17.57
2022-09-12T11:57:44.824Z,17.57
2022-09-12T11:58:44.786Z,17.59
2022-09-12T11:59:44.679Z,17.56
2022-09-12T12:00:44.527Z,17.59
2022-09-12T12:01:48.552Z,17.65
2022-09-12T12:02:44.374Z,17.68
2022-09-12T12:03:44.276Z,17.69
2022-09-12T12:04:44.127Z,17.71
2022-09-12T12:05:44.028Z,17.62
2022-09-12T12:06:43.919Z,17.62
2022-09-12T12:07:45.738Z,17.66
2022-09-12T12:08:43.709Z,17.71
2022-09-12T12:09:43.641Z,17.69
2022-09-12T12:10:43.528Z,17.72
2022-09-12T12:11:43.401Z,17.72
2022-09-12T12:12:43.299Z,17.73
2022-09-12T12:13:43.213Z,17.76
2022-09-12T12:14:43.101Z,17.81
2022-09-12T12:15:43.040Z,17.87
2022-09-12T12:16:42.903Z,17.87
2022-09-12T12:17:42.802Z,17.91
2022-09-12T12:18:42.758Z,17.94
2022-09-12T12:19:42.603Z,17.96
2022-09-12T12:20:42.502Z,18.01
2022-09-12T12:21:42.402Z,17.99
2022-09-12T12:22:42.274Z,17.99
2022-09-12T12:23:42.195Z,17.97
2022-09-12T12:24:42.055Z,17.97
2022-09-12T12:25:41.945Z,17.99
2022-09-12T12:26:41.853Z,18.03
2022-09-12T12:27:41.736Z,18.03
2022-09-12T12:28:41.630Z,18.09
2022-09-12T12:29:43.876Z,18.05
2022-09-12T12:30:41.530Z,18.11
2022-09-12T12:31:41.288Z,18.09
2022-09-12T12:32:41.186Z,18.13
2022-09-12T12:33:41.066Z,18.12
2022-09-12T12:34:40.939Z,18.13
2022-09-12T12:35:40.838Z,18.13
2022-09-12T12:36:40.738Z,18.13
2022-09-12T12:37:40.637Z,18.11
2022-09-12T12:38:40.493Z,18.11
2022-09-12T12:39:40.429Z,18.12
2022-09-12T12:40:40.265Z,18.12
2022-09-12T12:41:40.164Z,18.13
2022-09-12T12:42:40.052Z,18.17
2022-09-12T12:43:39.944Z,18.17
2022-09-12T12:44:39.823Z,18.20
2022-09-12T12:45:39.722Z,18.23
2022-09-12T12:46:39.624Z,18.24
2022-09-12T12:47:39.513Z,18.28
2022-09-12T12:48:39.383Z,18.31
2022-09-12T12:49:39.263Z,18.31
2022-09-12T12:50:39.155Z,18.34
2022-09-12T12:51:39.045Z,18.38
2022-09-12T12:52:38.917Z,18.39
2022-09-12T12:53:38.818Z,18.46
2022-09-12T12:54:38.700Z,18.39
2022-09-12T12:55:38.585Z,18.34
2022-09-12T12:56:38.468Z,18.38
2022-09-12T12:57:38.380Z,18.31
2022-09-12T12:58:38.229Z,18.27
2022-09-12T12:59:38.133Z,18.28
2022-09-12T13:00:39.769Z,18.23
2022-09-12T13:01:37.906Z,18.23
2022-09-12T13:02:37.805Z,18.23
2022-09-12T13:03:37.672Z,18.20
2022-09-12T13:04:37.559Z,18.11